Time;durP1;ratioP1;P1;durP2;ratioP2;P2;SDS_P1;SDS_P2;PMS_P1;PMS_P2;Temp;Humidity;BMP_temperature;BMP_pressure;BME280_temperature;BME280_humidity;BME280_pressure;Samples;Min_cycle;Max_cycle;Signal;HPM_P1;HPM_P2
2022/12/29 00:00:23;;;;;;;;;;;;;;;;;;6147802;23;19925;-89
2022/12/29 00:02:50;;;;;;;;;;;;;;;;;;6141851;23;19956;-89
2022/12/29 00:05:16;;;;;;;;;;;;;;;;;;6168395;23;20380;-90
2022/12/29 00:07:44;;;;;;;;;;;;;;;;;;6121734;23;19924;-90
2022/12/29 00:10:11;;;;;;;;;;;;;;;;;;6120466;23;19987;-89
2022/12/29 00:15:39;;;;;;;;;;;;;;;;;;6171493;23;19920;-89
2022/12/29 00:18:20;;;;;;;;;;;;;;;;;;6113813;23;19982;-89
2022/12/29 00:35:12;;;;;;;;;;;;;;;;;;6088306;23;19976;-90
2022/12/29 00:46:04;;;;;;;;;;;;;;;;;;6080959;23;19917;-90
2022/12/29 00:51:22;;;;;;;;;;;;;;;;;;6145703;23;19920;-90
2022/12/29 00:53:49;;;;;;;;;;;;;;;;;;6144581;23;19983;-90
2022/12/29 00:56:16;;;;;;;;;;;;;;;;;;6175399;23;19926;-89
2022/12/29 00:58:44;;;;;;;;;;;;;;;;;;6116729;23;19948;-90
2022/12/29 01:01:11;;;;;;;;;;;;;;;;;;6116596;23;19991;-89
2022/12/29 01:03:37;;;;;;;;;;;;;;;;;;6147434;23;19920;-90
2022/12/29 01:06:04;;;;;;;;;;;;;;;;;;6147768;23;19926;-91
2022/12/29 01:08:31;;;;;;;;;;;;;;;;;;6149073;23;20455;-89
2022/12/29 01:10:58;;;;;;;;;;;;;;;;;;6145250;23;19920;-91
2022/12/29 01:13:26;;;;;;;;;;;;;;;;;;6147531;23;19927;-90
2022/12/29 01:16:07;;;;;;;;;;;;;;;;;;6172305;23;19920;-90
2022/12/29 01:18:34;;;;;;;;;;;;;;;;;;6149517;23;19916;-90
2022/12/29 01:21:01;;;;;;;;;;;;;;;;;;6146647;23;20384;-91
2022/12/29 01:23:28;;;;;;;;;;;;;;;;;;6147655;23;20039;-90
2022/12/29 01:25:55;;;;;;;;;;;;;;;;;;6145083;23;19927;-90
2022/12/29 01:28:23;;;;;;;;;;;;;;;;;;6198230;23;19924;-90
2022/12/29 01:31:02;;;;;;;;;;;;;;;;;;6170357;23;19920;-89
2022/12/29 01:33:29;;;;;;;;;;;;;;;;;;6147220;23;19920;-90
2022/12/29 01:35:55;;;;;;;;;;;;;;;;;;6192824;23;19927;-90
2022/12/29 01:38:31;;;;;;;;;;;;;;;;;;6174231;23;19979;-90
2022/12/29 01:40:58;;;;;;;;;;;;;;;;;;6142468;23;19916;-90
2022/12/29 01:43:25;;;;;;;;;;;;;;;;;;6194597;23;20311;-90
2022/12/29 01:45:52;;;;;;;;;;;;;;;;;;6143238;23;20037;-90
2022/12/29 01:48:33;;;;;;;;;;;;;;;;;;6172628;23;19927;-89
2022/12/29 01:50:59;;;;;;;;;;;;;;;;;;6145304;23;19916;-89
2022/12/29 01:53:27;;;;;;;;;;;;;;;;;;6174028;23;19958;-89
2022/12/29 01:55:53;;;;;;;;;;;;;;;;;;6143662;23;19928;-90
2022/12/29 01:58:19;;;;;;;;;;;;;;;;;;6146178;23;19920;-90
2022/12/29 02:00:54;;;;;;;;;;;;;;;;;;6147914;23;20245;-91
2022/12/29 02:03:21;;;;;;;;;;;;;;;;;;6173646;23;19924;-90
2022/12/29 02:05:47;;;;;;;;;;;;;;;;;;6147869;23;19920;-90
2022/12/29 02:08:14;;;;;;;;;;;;;;;;;;6174329;23;19920;-89
2022/12/29 02:10:41;;;;;;;;;;;;;;;;;;6147354;23;19974;-90
2022/12/29 02:13:08;;;;;;;;;;;;;;;;;;6169536;23;19930;-89
2022/12/29 02:15:35;;;;;;;;;;;;;;;;;;6170753;23;19995;-90
2022/12/29 02:18:03;;;;;;;;;;;;;;;;;;6143932;23;20134;-89
2022/12/29 02:20:30;;;;;;;;;;;;;;;;;;6147868;23;19920;-89
2022/12/29 02:22:57;;;;;;;;;;;;;;;;;;6196209;23;19927;-89
2022/12/29 02:25:25;;;;;;;;;;;;;;;;;;6147168;23;19946;-89
2022/12/29 02:27:52;;;;;;;;;;;;;;;;;;6140764;23;19924;-90
2022/12/29 02:30:20;;;;;;;;;;;;;;;;;;6171357;23;20002;-90
2022/12/29 02:32:49;;;;;;;;;;;;;;;;;;6196473;23;19922;-90
2022/12/29 02:35:15;;;;;;;;;;;;;;;;;;6196814;23;19967;-89
2022/12/29 02:37:48;;;;;;;;;;;;;;;;;;6169678;23;19922;-90
2022/12/29 02:40:15;;;;;;;;;;;;;;;;;;6195168;23;19986;-90
2022/12/29 02:42:43;;;;;;;;;;;;;;;;;;6145649;23;19987;-90
2022/12/29 02:45:10;;;;;;;;;;;;;;;;;;6168697;23;19975;-91
2022/12/29 02:47:37;;;;;;;;;;;;;;;;;;6193467;23;19924;-90
2022/12/29 02:50:03;;;;;;;;;;;;;;;;;;6145426;23;19919;-90
2022/12/29 02:52:30;;;;;;;;;;;;;;;;;;6147139;23;20597;-90
2022/12/29 02:54:57;;;;;;;;;;;;;;;;;;6143885;23;19921;-90
2022/12/29 02:57:25;;;;;;;;;;;;;;;;;;6197020;23;19924;-89
2022/12/29 02:59:53;;;;;;;;;;;;;;;;;;6169008;23;20345;-89
2022/12/29 03:02:20;;;;;;;;;;;;;;;;;;6147400;23;19920;-89
2022/12/29 03:04:46;;;;;;;;;;;;;;;;;;6172376;23;19916;-89
2022/12/29 03:07:13;;;;;;;;;;;;;;;;;;6171295;23;19920;-90
2022/12/29 03:09:41;;;;;;;;;;;;;;;;;;6145398;23;19933;-89
2022/12/29 03:12:21;;;;;;;;;;;;;;;;;;6139894;23;19980;-90
2022/12/29 03:17:36;;;;;;;;;;;;;;;;;;6137419;23;19972;-89
2022/12/29 03:20:04;;;;;;;;;;;;;;;;;;6113722;23;20707;-89
2022/12/29 03:22:33;;;;;;;;;;;;;;;;;;6139163;23;19925;-90
2022/12/29 03:25:00;;;;;;;;;;;;;;;;;;6114057;23;19924;-91
2022/12/29 03:27:28;;;;;;;;;;;;;;;;;;6090949;23;19952;-90
2022/12/29 03:29:57;;;;;;;;;;;;;;;;;;6136524;23;19924;-91
2022/12/29 03:32:24;;;;;;;;;;;;;;;;;;6090670;23;20572;-90
2022/12/29 03:34:54;;;;;;;;;;;;;;;;;;6089753;23;19924;-89
2022/12/29 03:37:20;;;;;;;;;;;;;;;;;;6112546;23;19991;-90
2022/12/29 03:39:52;;;;;;;;;;;;;;;;;;6089049;23;19955;-90
2022/12/29 03:42:19;;;;;;;;;;;;;;;;;;6090897;23;20318;-90
2022/12/29 03:44:50;;;;;;;;;;;;;;;;;;6090951;23;20562;-91
2022/12/29 03:47:17;;;;;;;;;;;;;;;;;;6089853;23;19923;-90
2022/12/29 03:49:44;;;;;;;;;;;;;;;;;;6138937;23;19920;-89
2022/12/29 03:52:14;;;;;;;;;;;;;;;;;;6173283;23;19916;-90
2022/12/29 03:54:41;;;;;;;;;;;;;;;;;;6173213;23;19925;-90
2022/12/29 03:57:07;;;;;;;;;;;;;;;;;;5895633;23;6394399;-89
2022/12/29 03:59:35;;;;;;;;;;;;;;;;;;6147256;23;19916;-91
2022/12/29 04:02:02;;;;;;;;;;;;;;;;;;6119354;23;20006;-90
2022/12/29 04:04:28;;;;;;;;;;;;;;;;;;6149340;23;20322;-89
2022/12/29 04:06:55;;;;;;;;;;;;;;;;;;6145617;23;19979;-90
2022/12/29 04:09:22;;;;;;;;;;;;;;;;;;6173950;23;19976;-92
2022/12/29 04:11:49;;;;;;;;;;;;;;;;;;6145620;23;20687;-91
2022/12/29 04:14:17;;;;;;;;;;;;;;;;;;6124702;23;19995;-90
2022/12/29 04:16:44;;;;;;;;;;;;;;;;;;6122899;23;19920;-90
2022/12/29 04:19:10;;;;;;;;;;;;;;;;;;6119915;23;19932;-91
2022/12/29 04:21:38;;;;;;;;;;;;;;;;;;6148055;23;20002;-91
2022/12/29 04:24:06;;;;;;;;;;;;;;;;;;6120994;23;19916;-90
2022/12/29 04:26:32;;;;;;;;;;;;;;;;;;6147811;23;19971;-91
2022/12/29 04:28:59;;;;;;;;;;;;;;;;;;6122757;23;20301;-90
2022/12/29 04:31:25;;;;;;;;;;;;;;;;;;6148673;23;19920;-91
2022/12/29 04:33:57;;;;;;;;;;;;;;;;;;6083352;23;19964;-91
2022/12/29 04:36:23;;;;;;;;;;;;;;;;;;6038425;23;19921;-91
2022/12/29 04:38:51;;;;;;;;;;;;;;;;;;6036575;23;19973;-92
2022/12/29 04:41:18;;;;;;;;;;;;;;;;;;6084178;23;20458;-91
2022/12/29 04:43:46;;;;;;;;;;;;;;;;;;6032701;23;19921;-92
2022/12/29 04:46:16;;;;;;;;;;;;;;;;;;6056436;23;19989;-90
2022/12/29 04:48:43;;;;;;;;;;;;;;;;;;6080175;23;19925;-91
2022/12/29 04:51:09;;;;;;;;;;;;;;;;;;6030584;23;19926;-90
2022/12/29 04:53:35;;;;;;;;;;;;;;;;;;6031708;23;19951;-90
2022/12/29 04:56:02;;;;;;;;;;;;;;;;;;6077585;23;19921;-90
2022/12/29 04:58:31;;;;;;;;;;;;;;;;;;6056776;23;19929;-91
2022/12/29 05:00:57;;;;;;;;;;;;;;;;;;6030665;23;20315;-91
2022/12/29 05:03:23;;;;;;;;;;;;;;;;;;6033852;23;19931;-90
2022/12/29 05:05:49;;;;;;;;;;;;;;;;;;6136053;23;19920;-91
2022/12/29 05:08:22;;;;;;;;;;;;;;;;;;6172322;23;19927;-90
2022/12/29 05:10:48;;;;;;;;;;;;;;;;;;6144600;23;19920;-90
2022/12/29 05:13:16;;;;;;;;;;;;;;;;;;6121944;23;19923;-90
2022/12/29 05:15:43;;;;;;;;;;;;;;;;;;6122525;23;19987;-89
2022/12/29 05:18:10;;;;;;;;;;;;;;;;;;6118729;23;20628;-90
2022/12/29 05:20:37;;;;;;;;;;;;;;;;;;6146797;23;20002;-89
2022/12/29 05:23:03;;;;;;;;;;;;;;;;;;6144815;23;19920;-90
2022/12/29 05:25:30;;;;;;;;;;;;;;;;;;6146042;23;20285;-90
2022/12/29 05:27:57;;;;;;;;;;;;;;;;;;6115320;23;19931;-89
2022/12/29 05:30:25;;;;;;;;;;;;;;;;;;6119163;23;20653;-90
2022/12/29 05:32:52;;;;;;;;;;;;;;;;;;6117049;23;19927;-89
2022/12/29 05:35:19;;;;;;;;;;;;;;;;;;6144125;23;19920;-90
2022/12/29 05:37:49;;;;;;;;;;;;;;;;;;6119087;23;19991;-89
2022/12/29 05:40:25;;;;;;;;;;;;;;;;;;6145610;23;19943;-89
2022/12/29 05:42:53;;;;;;;;;;;;;;;;;;6138072;23;20261;-89
2022/12/29 05:45:19;;;;;;;;;;;;;;;;;;6117428;23;19927;-89
2022/12/29 05:47:49;;;;;;;;;;;;;;;;;;6117317;23;20211;-90
2022/12/29 05:50:17;;;;;;;;;;;;;;;;;;6143380;23;19991;-90
2022/12/29 05:52:43;;;;;;;;;;;;;;;;;;6142733;23;19974;-90
2022/12/29 05:55:16;;;;;;;;;;;;;;;;;;6143506;23;19927;-89
2022/12/29 05:57:43;;;;;;;;;;;;;;;;;;6114527;23;20322;-89
2022/12/29 06:00:10;;;;;;;;;;;;;;;;;;6112368;23;19924;-90
2022/12/29 06:02:36;;;;;;;;;;;;;;;;;;6136746;23;20326;-90
2022/12/29 06:05:15;;;;;;;;;;;;;;;;;;6121102;23;20381;-90
2022/12/29 06:07:42;;;;;;;;;;;;;;;;;;6143266;23;20337;-90
2022/12/29 06:10:09;;;;;;;;;;;;;;;;;;6163408;23;20090;-90
2022/12/29 06:12:36;;;;;;;;;;;;;;;;;;6115439;23;19920;-90
2022/12/29 06:15:02;;;;;;;;;;;;;;;;;;6140045;23;19935;-90
2022/12/29 06:17:30;;;;;;;;;;;;;;;;;;6140046;23;19987;-90
2022/12/29 06:19:56;;;;;;;;;;;;;;;;;;6113213;23;19920;-90
2022/12/29 06:22:23;;;;;;;;;;;;;;;;;;6116651;23;20679;-90
2022/12/29 06:24:50;;;;;;;;;;;;;;;;;;6139328;23;19917;-89
2022/12/29 06:27:17;;;;;;;;;;;;;;;;;;6142477;23;19917;-89
2022/12/29 06:30:03;;;;;;;;;;;;;;;;;;6140494;23;19934;-89
2022/12/29 06:32:30;;;;;;;;;;;;;;;;;;6117747;23;19972;-89
2022/12/29 06:35:16;;;;;;;;;;;;;;;;;;6146190;23;19951;-89
2022/12/29 06:37:43;;;;;;;;;;;;;;;;;;6143690;23;19923;-88
2022/12/29 06:40:11;;;;;;;;;;;;;;;;;;6114290;23;19921;-89
2022/12/29 06:42:39;;;;;;;;;;;;;;;;;;6141934;23;20713;-89
2022/12/29 06:45:05;;;;;;;;;;;;;;;;;;6113801;23;19921;-91
2022/12/29 06:47:38;;;;;;;;;;;;;;;;;;6139393;23;20421;-91
2022/12/29 06:50:09;;;;;;;;;;;;;;;;;;6138905;23;19991;-89
2022/12/29 06:52:36;;;;;;;;;;;;;;;;;;6139695;23;19971;-90
2022/12/29 06:55:03;;;;;;;;;;;;;;;;;;6137948;23;19940;-89
2022/12/29 06:57:30;;;;;;;;;;;;;;;;;;6115138;23;19924;-90
2022/12/29 06:59:57;;;;;;;;;;;;;;;;;;6108143;23;19920;-89
2022/12/29 07:02:27;;;;;;;;;;;;;;;;;;6143785;23;19920;-91
2022/12/29 07:04:55;;;;;;;;;;;;;;;;;;6136858;23;19921;-90
2022/12/29 07:07:22;;;;;;;;;;;;;;;;;;6140232;23;19921;-89
2022/12/29 07:09:50;;;;;;;;;;;;;;;;;;6136404;23;19923;-91
2022/12/29 07:12:17;;;;;;;;;;;;;;;;;;6138540;23;20012;-90
2022/12/29 07:14:43;;;;;;;;;;;;;;;;;;6114142;23;20297;-90
2022/12/29 07:17:10;;;;;;;;;;;;;;;;;;6113161;23;19975;-90
2022/12/29 07:19:36;;;;;;;;;;;;;;;;;;6138804;23;20179;-89
2022/12/29 07:22:03;;;;;;;;;;;;;;;;;;6111679;23;19951;-90
2022/12/29 07:24:31;;;;;;;;;;;;;;;;;;6124497;23;20262;-90
2022/12/29 07:26:57;;;;;;;;;;;;;;;;;;6134030;23;20669;-89
2022/12/29 07:29:38;;;;;;;;;;;;;;;;;;6077151;23;20682;-89
2022/12/29 07:32:05;;;;;;;;;;;;;;;;;;6023105;23;19921;-90
2022/12/29 07:34:32;;;;;;;;;;;;;;;;;;6102129;23;19917;-89
2022/12/29 07:37:00;;;;;;;;;;;;;;;;;;6080345;23;19980;-90
2022/12/29 07:39:27;;;;;;;;;;;;;;;;;;6109584;23;19921;-89
2022/12/29 07:41:54;;;;;;;;;;;;;;;;;;6080690;23;20251;-89
2022/12/29 07:44:24;;;;;;;;;;;;;;;;;;6084639;23;19921;-89
2022/12/29 07:46:51;;;;;;;;;;;;;;;;;;6054846;23;19955;-90
2022/12/29 07:49:17;;;;;;;;;;;;;;;;;;6083725;23;19948;-90
2022/12/29 07:51:44;;;;;;;;;;;;;;;;;;6080943;23;20023;-90
2022/12/29 07:54:12;;;;;;;;;;;;;;;;;;6102747;23;19927;-89
2022/12/29 07:56:40;;;;;;;;;;;;;;;;;;6085436;23;20394;-90
2022/12/29 07:59:06;;;;;;;;;;;;;;;;;;6059371;23;19924;-89
2022/12/29 08:01:32;;;;;;;;;;;;;;;;;;6130332;23;20282;-91
2022/12/29 08:03:58;;;;;;;;;;;;;;;;;;6141761;23;20573;-89
2022/12/29 08:06:25;;;;;;;;;;;;;;;;;;6119100;23;19927;-89
2022/12/29 08:08:52;;;;;;;;;;;;;;;;;;6114307;23;19932;-89
2022/12/29 08:11:18;;;;;;;;;;;;;;;;;;6140588;23;20262;-89
2022/12/29 08:13:46;;;;;;;;;;;;;;;;;;6140358;23;19921;-88
2022/12/29 08:16:13;;;;;;;;;;;;;;;;;;6138036;23;20265;-89
2022/12/29 08:18:40;;;;;;;;;;;;;;;;;;6164524;23;20424;-89
2022/12/29 08:21:06;;;;;;;;;;;;;;;;;;6138402;23;19920;-89
2022/12/29 08:23:32;;;;;;;;;;;;;;;;;;6112789;23;19928;-89
2022/12/29 08:25:58;;;;;;;;;;;;;;;;;;6134127;23;20310;-90
2022/12/29 08:28:25;;;;;;;;;;;;;;;;;;6113847;23;19964;-89
2022/12/29 08:30:51;;;;;;;;;;;;;;;;;;6141847;23;19917;-89
2022/12/29 08:33:37;;;;;;;;;;;;;;;;;;6143602;23;19918;-90
2022/12/29 08:36:23;;;;;;;;;;;;;;;;;;6142152;23;19992;-89
2022/12/29 08:38:50;;;;;;;;;;;;;;;;;;6138287;23;19920;-90
2022/12/29 08:41:17;;;;;;;;;;;;;;;;;;6118865;23;19952;-90
2022/12/29 08:43:44;;;;;;;;;;;;;;;;;;6114543;23;19932;-89
2022/12/29 08:46:10;;;;;;;;;;;;;;;;;;6132345;23;19927;-89
2022/12/29 08:48:36;;;;;;;;;;;;;;;;;;6112369;23;19929;-90
2022/12/29 08:51:02;;;;;;;;;;;;;;;;;;6135286;23;19928;-89
2022/12/29 08:53:48;;;;;;;;;;;;;;;;;;6137371;23;19920;-89
2022/12/29 08:56:16;;;;;;;;;;;;;;;;;;6136024;23;19920;-88
2022/12/29 08:58:42;;;;;;;;;;;;;;;;;;6135967;23;19924;-89
2022/12/29 09:01:09;;;;;;;;;;;;;;;;;;6135983;23;19998;-89
2022/12/29 09:03:36;;;;;;;;;;;;;;;;;;6138818;23;20274;-88
2022/12/29 09:06:03;;;;;;;;;;;;;;;;;;6135226;23;20338;-89
2022/12/29 09:08:29;;;;;;;;;;;;;;;;;;6112545;23;19935;-89
2022/12/29 09:10:55;;;;;;;;;;;;;;;;;;6135188;23;20246;-89
2022/12/29 09:13:31;;;;;;;;;;;;;;;;;;6114889;23;19928;-89
2022/12/29 09:16:18;;;;;;;;;;;;;;;;;;6136678;23;19966;-89
2022/12/29 09:18:44;;;;;;;;;;;;;;;;;;6114723;23;19920;-90
2022/12/29 09:21:12;;;;;;;;;;;;;;;;;;6135813;23;19920;-88
2022/12/29 09:23:39;;;;;;;;;;;;;;;;;;6140147;23;19956;-89
2022/12/29 09:26:07;;;;;;;;;;;;;;;;;;6131725;23;20243;-89
2022/12/29 09:28:53;;;;;;;;;;;;;;;;;;6077426;23;19921;-89
2022/12/29 09:31:19;;;;;;;;;;;;;;;;;;6081762;23;20402;-89
2022/12/29 09:33:53;;;;;;;;;;;;;;;;;;6055347;23;20274;-90
2022/12/29 09:36:19;;;;;;;;;;;;;;;;;;6079363;23;19984;-89
2022/12/29 09:38:46;;;;;;;;;;;;;;;;;;6082425;23;20011;-89
2022/12/29 09:41:12;;;;;;;;;;;;;;;;;;6079524;23;19921;-89
2022/12/29 09:43:38;;;;;;;;;;;;;;;;;;6079648;23;19995;-89
2022/12/29 09:46:10;;;;;;;;;;;;;;;;;;6053505;23;19932;-89
2022/12/29 09:48:37;;;;;;;;;;;;;;;;;;6075246;23;19924;-89
2022/12/29 09:51:04;;;;;;;;;;;;;;;;;;6053927;23;19921;-89
2022/12/29 09:53:31;;;;;;;;;;;;;;;;;;6080285;23;19920;-89
2022/12/29 09:55:57;;;;;;;;;;;;;;;;;;6052261;23;19928;-89
2022/12/29 09:58:26;;;;;;;;;;;;;;;;;;6104137;23;20094;-89
2022/12/29 10:00:54;;;;;;;;;;;;;;;;;;6099356;23;20003;-89
2022/12/29 10:03:21;;;;;;;;;;;;;;;;;;6055482;23;19925;-89
2022/12/29 10:05:51;;;;;;;;;;;;;;;;;;6102416;23;19978;-89
2022/12/29 10:08:18;;;;;;;;;;;;;;;;;;6056569;23;19973;-90
2022/12/29 10:10:44;;;;;;;;;;;;;;;;;;6082534;23;19996;-90
2022/12/29 10:13:17;;;;;;;;;;;;;;;;;;6119320;23;19947;-90
2022/12/29 10:15:44;;;;;;;;;;;;;;;;;;6161674;23;19924;-92
2022/12/29 10:18:11;;;;;;;;;;;;;;;;;;6133575;23;19995;-90
2022/12/29 10:20:38;;;;;;;;;;;;;;;;;;6114079;23;19928;-89
2022/12/29 10:23:06;;;;;;;;;;;;;;;;;;6130565;23;19920;-90
2022/12/29 10:25:47;;;;;;;;;;;;;;;;;;6074338;23;19925;-92
2022/12/29 10:28:28;;;;;;;;;;;;;;;;;;6044162;23;19926;-92
2022/12/29 10:30:54;;;;;;;;;;;;;;;;;;6044139;23;20008;-91
2022/12/29 10:33:23;;;;;;;;;;;;;;;;;;6046920;23;19997;-91
2022/12/29 10:35:53;;;;;;;;;;;;;;;;;;6043172;23;19925;-90
2022/12/29 10:38:21;;;;;;;;;;;;;;;;;;6020786;23;20223;-91
2022/12/29 10:40:47;;;;;;;;;;;;;;;;;;6021865;23;19922;-90
2022/12/29 10:43:14;;;;;;;;;;;;;;;;;;6043872;23;19928;-91
2022/12/29 10:45:41;;;;;;;;;;;;;;;;;;6021833;23;19936;-91
2022/12/29 10:48:07;;;;;;;;;;;;;;;;;;6017573;23;19926;-91
2022/12/29 10:50:34;;;;;;;;;;;;;;;;;;6044366;23;19996;-91
2022/12/29 10:53:02;;;;;;;;;;;;;;;;;;6018138;23;19918;-90
2022/12/29 10:55:28;;;;;;;;;;;;;;;;;;6042885;23;20367;-90
2022/12/29 10:57:54;;;;;;;;;;;;;;;;;;6067556;23;19953;-91
2022/12/29 11:00:24;;;;;;;;;;;;;;;;;;6127072;23;20364;-90
2022/12/29 11:02:51;;;;;;;;;;;;;;;;;;6156538;23;20349;-91
2022/12/29 11:05:17;;;;;;;;;;;;;;;;;;6158612;23;20523;-91
2022/12/29 11:07:45;;;;;;;;;;;;;;;;;;6135083;23;19977;-90
2022/12/29 11:10:12;;;;;;;;;;;;;;;;;;6135263;23;19973;-90
2022/12/29 11:12:39;;;;;;;;;;;;;;;;;;6136658;23;19941;-90
2022/12/29 11:15:09;;;;;;;;;;;;;;;;;;6112598;23;19924;-90
2022/12/29 11:17:37;;;;;;;;;;;;;;;;;;6137187;23;19920;-91
2022/12/29 11:20:03;;;;;;;;;;;;;;;;;;6135289;23;19924;-91
2022/12/29 11:22:33;;;;;;;;;;;;;;;;;;6139493;23;19921;-90
2022/12/29 11:25:00;;;;;;;;;;;;;;;;;;6137025;23;19928;-90
2022/12/29 11:27:33;;;;;;;;;;;;;;;;;;6115210;23;20248;-90
2022/12/29 11:30:00;;;;;;;;;;;;;;;;;;6160732;23;19967;-90
2022/12/29 11:32:29;;;;;;;;;;;;;;;;;;6114401;23;19917;-90
2022/12/29 11:34:57;;;;;;;;;;;;;;;;;;6136850;23;19986;-90
2022/12/29 11:37:23;;;;;;;;;;;;;;;;;;6159677;23;19944;-89
2022/12/29 11:39:56;;;;;;;;;;;;;;;;;;6112572;23;19927;-90
2022/12/29 11:42:23;;;;;;;;;;;;;;;;;;6138379;23;20369;-89
2022/12/29 11:44:52;;;;;;;;;;;;;;;;;;6136584;23;19924;-89
2022/12/29 11:47:20;;;;;;;;;;;;;;;;;;6138038;23;19970;-89
2022/12/29 11:49:52;;;;;;;;;;;;;;;;;;6136150;23;19920;-91
2022/12/29 11:52:19;;;;;;;;;;;;;;;;;;6136859;23;19920;-89
2022/12/29 11:54:46;;;;;;;;;;;;;;;;;;6139834;23;19921;-90
2022/12/29 11:57:15;;;;;;;;;;;;;;;;;;6065224;23;19978;-89
2022/12/29 11:59:43;;;;;;;;;;;;;;;;;;6114279;23;19924;-89
2022/12/29 12:02:11;;;;;;;;;;;;;;;;;;6136538;23;19951;-89
2022/12/29 12:04:38;;;;;;;;;;;;;;;;;;6137886;23;19921;-90
2022/12/29 12:07:05;;;;;;;;;;;;;;;;;;6134720;23;19920;-89
2022/12/29 12:09:33;;;;;;;;;;;;;;;;;;6137965;23;20359;-89
2022/12/29 12:11:59;;;;;;;;;;;;;;;;;;6129385;23;19920;-89
2022/12/29 12:14:26;;;;;;;;;;;;;;;;;;6136658;23;20301;-90
2022/12/29 12:16:53;;;;;;;;;;;;;;;;;;6135317;23;19920;-89
2022/12/29 12:19:20;;;;;;;;;;;;;;;;;;6142851;23;19916;-89
2022/12/29 12:21:46;;;;;;;;;;;;;;;;;;6166286;23;19921;-89
2022/12/29 12:24:15;;;;;;;;;;;;;;;;;;6114296;23;20206;-89
2022/12/29 12:26:42;;;;;;;;;;;;;;;;;;6143359;23;19916;-89
2022/12/29 12:29:13;;;;;;;;;;;;;;;;;;6141147;23;19971;-89
2022/12/29 12:31:39;;;;;;;;;;;;;;;;;;6114180;23;19947;-90
2022/12/29 12:34:06;;;;;;;;;;;;;;;;;;6109738;23;19920;-89
2022/12/29 12:36:32;;;;;;;;;;;;;;;;;;6136274;23;19928;-89
2022/12/29 12:38:58;;;;;;;;;;;;;;;;;;6137269;23;20342;-88
2022/12/29 12:41:25;;;;;;;;;;;;;;;;;;6110393;23;20031;-90
2022/12/29 12:43:52;;;;;;;;;;;;;;;;;;6111870;23;20290;-90
2022/12/29 12:46:20;;;;;;;;;;;;;;;;;;6113153;23;20326;-90
2022/12/29 12:48:46;;;;;;;;;;;;;;;;;;6137360;23;19939;-91
2022/12/29 12:51:27;;;;;;;;;;;;;;;;;;6108103;23;19917;-90
2022/12/29 12:53:53;;;;;;;;;;;;;;;;;;6055887;23;20251;-89
2022/12/29 12:56:21;;;;;;;;;;;;;;;;;;6060284;23;19921;-90
2022/12/29 12:58:48;;;;;;;;;;;;;;;;;;6080893;23;19925;-90
2022/12/29 13:01:14;;;;;;;;;;;;;;;;;;6060083;23;20339;-91
2022/12/29 13:03:42;;;;;;;;;;;;;;;;;;6083768;23;20024;-89
2022/12/29 13:06:08;;;;;;;;;;;;;;;;;;6105021;23;20408;-89
2022/12/29 13:08:35;;;;;;;;;;;;;;;;;;6059262;23;19952;-90
2022/12/29 13:11:03;;;;;;;;;;;;;;;;;;6082668;23;19923;-89
2022/12/29 13:13:30;;;;;;;;;;;;;;;;;;6061277;23;19921;-90
2022/12/29 13:15:57;;;;;;;;;;;;;;;;;;6105981;23;19956;-89
2022/12/29 13:18:24;;;;;;;;;;;;;;;;;;6083001;23;20354;-89
2022/12/29 13:20:50;;;;;;;;;;;;;;;;;;6057759;23;19925;-90
2022/12/29 13:23:25;;;;;;;;;;;;;;;;;;6136803;23;19943;-89
2022/12/29 13:25:51;;;;;;;;;;;;;;;;;;6139965;23;19999;-90
2022/12/29 13:28:18;;;;;;;;;;;;;;;;;;6113877;23;19924;-91
2022/12/29 13:30:46;;;;;;;;;;;;;;;;;;6140931;23;19991;-89
2022/12/29 13:33:14;;;;;;;;;;;;;;;;;;6139496;23;19928;-89
2022/12/29 13:35:41;;;;;;;;;;;;;;;;;;6141517;23;19925;-89
2022/12/29 13:38:09;;;;;;;;;;;;;;;;;;6163000;23;20059;-89
2022/12/29 13:40:35;;;;;;;;;;;;;;;;;;6115472;23;19936;-89
2022/12/29 13:43:02;;;;;;;;;;;;;;;;;;6137108;23;19921;-91
2022/12/29 13:45:30;;;;;;;;;;;;;;;;;;6113188;23;20493;-90
2022/12/29 13:47:57;;;;;;;;;;;;;;;;;;6130983;23;20388;-89
2022/12/29 13:50:24;;;;;;;;;;;;;;;;;;6134912;23;19995;-89
2022/12/29 13:52:50;;;;;;;;;;;;;;;;;;6107372;23;20353;-90
2022/12/29 13:55:16;;;;;;;;;;;;;;;;;;6137567;23;20641;-90
2022/12/29 13:57:48;;;;;;;;;;;;;;;;;;6139236;23;20540;-90
2022/12/29 14:00:16;;;;;;;;;;;;;;;;;;6115224;23;19952;-89
2022/12/29 14:02:43;;;;;;;;;;;;;;;;;;6145215;23;20474;-89
2022/12/29 14:05:09;;;;;;;;;;;;;;;;;;6117125;23;20372;-90
2022/12/29 14:07:37;;;;;;;;;;;;;;;;;;6146824;23;19927;-90
2022/12/29 14:10:04;;;;;;;;;;;;;;;;;;6138662;23;19947;-89
2022/12/29 14:12:32;;;;;;;;;;;;;;;;;;6119142;23;19999;-89
2022/12/29 14:14:58;;;;;;;;;;;;;;;;;;6105061;23;19987;-89
2022/12/29 14:17:29;;;;;;;;;;;;;;;;;;6081952;23;20299;-90
2022/12/29 14:19:56;;;;;;;;;;;;;;;;;;6104437;23;19917;-89
2022/12/29 14:22:23;;;;;;;;;;;;;;;;;;6081111;23;19921;-90
2022/12/29 14:24:50;;;;;;;;;;;;;;;;;;6104129;23;19925;-90
2022/12/29 14:27:18;;;;;;;;;;;;;;;;;;6083562;23;20020;-89
2022/12/29 14:29:45;;;;;;;;;;;;;;;;;;6083823;23;19960;-89
2022/12/29 14:32:12;;;;;;;;;;;;;;;;;;6081385;23;19960;-90
2022/12/29 14:34:39;;;;;;;;;;;;;;;;;;6083867;23;19917;-89
2022/12/29 14:37:05;;;;;;;;;;;;;;;;;;6106915;23;20023;-89
2022/12/29 14:39:33;;;;;;;;;;;;;;;;;;6083853;23;20439;-90
2022/12/29 14:42:00;;;;;;;;;;;;;;;;;;6081333;23;19917;-90
2022/12/29 14:44:27;;;;;;;;;;;;;;;;;;6084150;23;19921;-89
2022/12/29 14:46:53;;;;;;;;;;;;;;;;;;6111945;23;19923;-89
2022/12/29 14:49:21;;;;;;;;;;;;;;;;;;6123323;23;20253;-89
2022/12/29 14:51:48;;;;;;;;;;;;;;;;;;6144397;23;19945;-90
2022/12/29 14:54:15;;;;;;;;;;;;;;;;;;6174058;23;19924;-89
2022/12/29 14:56:51;;;;;;;;;;;;;;;;;;6121111;23;20010;-89
2022/12/29 14:59:22;;;;;;;;;;;;;;;;;;6148043;23;19976;-89
2022/12/29 15:01:52;;;;;;;;;;;;;;;;;;6121124;23;19920;-90
2022/12/29 15:04:27;;;;;;;;;;;;;;;;;;6173407;23;19920;-89
2022/12/29 17:39:52;;;;;;;;;;;;;;;;;;6178902;23;19924;-92
2022/12/29 17:42:18;;;;;;;;;;;;;;;;;;6129088;23;20010;-92
2022/12/29 17:44:44;;;;;;;;;;;;;;;;;;6173962;23;19923;-92
2022/12/29 17:47:10;;;;;;;;;;;;;;;;;;6145882;23;19920;-91
2022/12/29 17:49:36;;;;;;;;;;;;;;;;;;6123618;23;19966;-91
2022/12/29 17:52:02;;;;;;;;;;;;;;;;;;6121894;23;20242;-92
2022/12/29 17:54:28;;;;;;;;;;;;;;;;;;6125224;23;19920;-93
2022/12/29 17:56:54;;;;;;;;;;;;;;;;;;6120258;23;19995;-92
2022/12/29 17:59:20;;;;;;;;;;;;;;;;;;6149584;23;20318;-91
2022/12/29 18:01:46;;;;;;;;;;;;;;;;;;6118184;23;19966;-91
2022/12/29 18:04:12;;;;;;;;;;;;;;;;;;6144719;23;20648;-92
2022/12/29 18:06:38;;;;;;;;;;;;;;;;;;6120955;23;19928;-93
2022/12/29 18:09:07;;;;;;;;;;;;;;;;;;6117119;23;19916;-91
2022/12/29 18:11:33;;;;;;;;;;;;;;;;;;6170258;23;19947;-91
2022/12/29 18:13:59;;;;;;;;;;;;;;;;;;6165551;23;19919;-90
2022/12/29 18:16:25;;;;;;;;;;;;;;;;;;6118269;23;19971;-90
2022/12/29 18:18:51;;;;;;;;;;;;;;;;;;6117669;23;20397;-91
2022/12/29 18:21:17;;;;;;;;;;;;;;;;;;6121179;23;19991;-91
2022/12/29 18:23:43;;;;;;;;;;;;;;;;;;6170984;23;19971;-92
2022/12/29 18:26:09;;;;;;;;;;;;;;;;;;6120947;23;19924;-91
2022/12/29 18:28:35;;;;;;;;;;;;;;;;;;6145580;23;19917;-92
2022/12/29 18:31:01;;;;;;;;;;;;;;;;;;6144487;23;19959;-91
2022/12/29 18:33:27;;;;;;;;;;;;;;;;;;6146727;23;19923;-91
2022/12/29 18:35:53;;;;;;;;;;;;;;;;;;6146177;23;19966;-92
2022/12/29 18:38:19;;;;;;;;;;;;;;;;;;6148027;23;20368;-91
2022/12/29 18:40:45;;;;;;;;;;;;;;;;;;6147787;23;19916;-91
2022/12/29 18:43:11;;;;;;;;;;;;;;;;;;6142226;23;20258;-91
2022/12/29 18:45:37;;;;;;;;;;;;;;;;;;6171441;23;19987;-91
2022/12/29 18:48:03;;;;;;;;;;;;;;;;;;6143935;23;20265;-91
2022/12/29 18:50:28;;;;;;;;;;;;;;;;;;6144149;23;19931;-90
2022/12/29 18:52:55;;;;;;;;;;;;;;;;;;6169862;23;19916;-93
2022/12/29 18:55:21;;;;;;;;;;;;;;;;;;6145860;23;20305;-90
2022/12/29 18:57:47;;;;;;;;;;;;;;;;;;6195773;23;20345;-91
2022/12/29 19:00:13;;;;;;;;;;;;;;;;;;6144048;23;20340;-91
2022/12/29 19:02:39;;;;;;;;;;;;;;;;;;6143776;23;19928;-91
2022/12/29 19:05:05;;;;;;;;;;;;;;;;;;6137840;23;19920;-92
2022/12/29 19:07:31;;;;;;;;;;;;;;;;;;6193886;23;19920;-91
2022/12/29 19:09:58;;;;;;;;;;;;;;;;;;6193464;23;19925;-92
2022/12/29 19:12:27;;;;;;;;;;;;;;;;;;6189041;23;19920;-91
2022/12/29 19:14:53;;;;;;;;;;;;;;;;;;6142685;23;20243;-91
2022/12/29 19:17:19;;;;;;;;;;;;;;;;;;6143887;23;19930;-90
2022/12/29 19:19:45;;;;;;;;;;;;;;;;;;6145323;23;19926;-91
2022/12/29 19:22:11;;;;;;;;;;;;;;;;;;6142483;23;19938;-91
2022/12/29 19:24:37;;;;;;;;;;;;;;;;;;6168118;23;19923;-90
2022/12/29 19:27:03;;;;;;;;;;;;;;;;;;6139555;23;20502;-91
2022/12/29 19:29:30;;;;;;;;;;;;;;;;;;6143858;23;19920;-90
2022/12/29 19:31:55;;;;;;;;;;;;;;;;;;6190170;23;20000;-91
2022/12/29 19:34:21;;;;;;;;;;;;;;;;;;6167867;23;19956;-91
2022/12/29 19:36:47;;;;;;;;;;;;;;;;;;6140538;23;20388;-91
2022/12/29 19:39:17;;;;;;;;;;;;;;;;;;6146051;23;19994;-91
2022/12/29 19:41:43;;;;;;;;;;;;;;;;;;6188221;23;19920;-90
2022/12/29 19:44:09;;;;;;;;;;;;;;;;;;6193932;23;20500;-91
2022/12/29 19:46:35;;;;;;;;;;;;;;;;;;6194851;23;19920;-92
2022/12/29 19:49:01;;;;;;;;;;;;;;;;;;6190735;23;19931;-91
2022/12/29 19:51:27;;;;;;;;;;;;;;;;;;6140922;23;19924;-91
2022/12/29 19:53:52;;;;;;;;;;;;;;;;;;6143265;23;19920;-91